createdAt,value
2023-02-21T00:00:05.567Z,29.07
2023-02-21T00:02:58.603Z,33.43
2023-02-21T00:05:45.133Z,32.37
2023-02-21T00:08:31.774Z,33.10
2023-02-21T00:11:18.134Z,34.97
2023-02-21T00:14:04.564Z,33.93
2023-02-21T00:16:52.385Z,35.43
2023-02-21T00:19:38.528Z,32.70
2023-02-21T00:22:25.033Z,33.43
2023-02-21T00:25:11.609Z,34.10
2023-02-21T00:27:57.975Z,32.23
2023-02-21T00:30:44.775Z,30.63
2023-02-21T00:33:33.154Z,33.83
2023-02-21T00:36:19.682Z,31.53
2023-02-21T00:39:05.770Z,33.13
2023-02-21T00:41:52.299Z,29.43
2023-02-21T00:44:38.431Z,31.53
2023-02-21T00:47:24.744Z,28.53
2023-02-21T00:50:12.504Z,30.33
2023-02-21T00:52:58.699Z,32.10
2023-02-21T00:55:45.213Z,30.30
2023-02-21T00:58:31.378Z,29.43
2023-02-21T01:01:18.258Z,32.03
2023-02-21T01:04:04.864Z,33.90
2023-02-21T01:06:52.971Z,33.47
2023-02-21T01:09:39.257Z,33.93
2023-02-21T01:12:25.852Z,29.43
2023-02-21T01:15:12.302Z,32.80
2023-02-21T01:17:58.647Z,31.73
2023-02-21T01:20:45.344Z,34.30
2023-02-21T01:23:33.219Z,32.77
2023-02-21T01:26:19.439Z,32.30
2023-02-21T01:29:06.529Z,34.03
2023-02-21T01:31:52.804Z,34.30
2023-02-21T01:34:38.907Z,33.67
2023-02-21T01:40:12.957Z,31.92
2023-02-21T01:43:01.975Z,28.07
2023-02-21T01:46:07.009Z,33.13
2023-02-21T01:48:55.199Z,35.27
2023-02-21T01:51:46.799Z,32.30
2023-02-21T01:54:35.187Z,31.00
2023-02-21T01:57:24.531Z,34.97
2023-02-21T02:00:15.132Z,33.97
2023-02-21T02:03:14.297Z,33.23
2023-02-21T02:06:05.005Z,36.43
2023-02-21T02:08:53.778Z,32.50
2023-02-21T02:12:05.048Z,34.67
2023-02-21T02:15:33.452Z,28.20
2023-02-21T02:18:25.562Z,31.20
2023-02-21T02:21:37.952Z,33.37
2023-02-21T02:24:43.861Z,30.20
2023-02-21T02:27:37.624Z,32.92
2023-02-21T02:30:49.551Z,31.43
2023-02-21T02:33:58.812Z,29.33
2023-02-21T02:36:36.550Z,31.50
2023-02-21T02:39:22.497Z,33.13
2023-02-21T02:42:09.132Z,31.15
2023-02-21T02:44:42.497Z,31.80
2023-02-21T02:47:19.465Z,34.37
2023-02-21T02:49:51.486Z,31.63
2023-02-21T02:52:20.836Z,30.93
2023-02-21T02:55:00.092Z,32.30
2023-02-21T02:57:38.244Z,33.90
2023-02-21T03:00:10.751Z,32.83
2023-02-21T03:02:57.469Z,28.50
2023-02-21T03:05:44.427Z,27.20
2023-02-21T03:08:28.019Z,31.60
2023-02-21T03:11:08.971Z,30.60
2023-02-21T03:13:47.632Z,30.77
2023-02-21T03:16:25.658Z,31.80
2023-02-21T03:19:01.840Z,33.80
2023-02-21T03:21:38.200Z,32.93
2023-02-21T03:24:15.979Z,33.57
2023-02-21T03:26:49.593Z,34.00
2023-02-21T03:29:41.811Z,32.58
2023-02-21T03:32:15.856Z,29.60
2023-02-21T03:34:44.801Z,35.33
2023-02-21T03:37:28.648Z,31.33
2023-02-21T03:39:58.092Z,32.60
2023-02-21T03:42:26.259Z,26.73
2023-02-21T03:44:54.819Z,31.53
2023-02-21T03:47:23.974Z,33.00
2023-02-21T03:49:53.013Z,31.27
2023-02-21T03:52:21.392Z,33.97
2023-02-21T03:54:49.280Z,33.73
2023-02-21T03:57:22.979Z,33.63
2023-02-21T03:59:51.526Z,36.17
2023-02-21T04:02:19.631Z,32.17
2023-02-21T04:04:48.751Z,35.03
2023-02-21T04:07:21.277Z,34.30
2023-02-21T04:09:50.616Z,32.43
2023-02-21T04:12:28.760Z,33.37
2023-02-21T04:14:58.607Z,33.07
2023-02-21T04:17:27.723Z,29.17
2023-02-21T04:19:57.836Z,33.37
2023-02-21T04:22:26.094Z,34.40
2023-02-21T04:24:54.483Z,32.43
2023-02-21T04:27:27.065Z,33.73
2023-02-21T04:29:58.537Z,33.57
2023-02-21T04:32:27.139Z,32.07
2023-02-21T04:34:56.095Z,34.33
2023-02-21T04:37:25.379Z,35.00
2023-02-21T04:39:53.889Z,34.40
2023-02-21T04:42:21.958Z,33.63
2023-02-21T04:44:59.648Z,34.93
2023-02-21T04:47:29.928Z,34.73
2023-02-21T04:49:58.637Z,32.30
2023-02-21T04:52:26.564Z,35.67
2023-02-21T04:54:54.439Z,34.30
2023-02-21T04:57:22.396Z,34.57
2023-02-21T04:59:57.830Z,35.23
2023-02-21T05:02:27.266Z,36.75
2023-02-21T05:04:56.410Z,37.70
2023-02-21T05:07:24.260Z,36.33
2023-02-21T05:09:52.451Z,37.33
2023-02-21T05:12:20.363Z,36.20
2023-02-21T05:14:48.172Z,35.27
2023-02-21T05:17:16.048Z,33.50
2023-02-21T05:19:43.982Z,34.53
2023-02-21T05:22:13.137Z,34.60
2023-02-21T05:24:45.003Z,34.93
2023-02-21T05:27:15.632Z,37.13
2023-02-21T05:29:47.964Z,36.63
2023-02-21T05:32:18.814Z,37.27
2023-02-21T05:34:47.747Z,33.33
2023-02-21T05:37:21.081Z,36.30
2023-02-21T05:39:49.327Z,35.73
2023-02-21T05:42:17.354Z,35.67
2023-02-21T05:44:46.034Z,36.43
2023-02-21T05:47:15.031Z,36.10
2023-02-21T05:49:43.440Z,36.70
2023-02-21T05:52:13.419Z,36.63
2023-02-21T05:54:43.110Z,33.90
2023-02-21T05:57:11.408Z,36.93
2023-02-21T05:59:39.715Z,35.50
2023-02-21T06:02:07.585Z,37.70
2023-02-21T06:04:35.410Z,37.50
2023-02-21T06:07:03.205Z,36.63
2023-02-21T06:09:31.087Z,35.83
2023-02-21T06:12:00.369Z,31.20
2023-02-21T06:14:28.179Z,35.80
2023-02-21T06:16:55.970Z,34.00
2023-02-21T06:19:23.914Z,32.13
2023-02-21T06:21:51.950Z,30.00
2023-02-21T06:24:19.807Z,31.80
2023-02-21T06:26:47.639Z,30.27
2023-02-21T06:29:17.083Z,31.63
2023-02-21T06:31:44.922Z,28.97
2023-02-21T06:34:13.262Z,27.00
2023-02-21T06:36:41.357Z,27.63
2023-02-21T06:39:10.749Z,28.40
2023-02-21T06:41:38.555Z,26.90
2023-02-21T06:44:06.339Z,25.83
2023-02-21T06:46:37.664Z,25.20
2023-02-21T06:49:05.552Z,24.70
2023-02-21T06:51:35.510Z,27.50
2023-02-21T06:54:04.459Z,25.10
2023-02-21T06:56:32.325Z,28.23
2023-02-21T06:59:00.283Z,28.00
2023-02-21T07:01:30.666Z,23.07
2023-02-21T07:04:00.459Z,30.20
2023-02-21T07:06:29.813Z,29.70
2023-02-21T07:08:57.913Z,28.87
2023-02-21T07:11:28.569Z,31.07
2023-02-21T07:13:59.463Z,25.80
2023-02-21T07:16:28.232Z,31.20
2023-02-21T07:18:55.988Z,34.70
2023-02-21T07:21:26.990Z,29.53
2023-02-21T07:23:54.933Z,34.80
2023-02-21T07:26:22.762Z,34.47
2023-02-21T07:28:50.729Z,36.80
2023-02-21T07:31:20.713Z,37.83
2023-02-21T07:33:50.034Z,40.77
2023-02-21T07:36:18.286Z,42.03
2023-02-21T07:38:47.431Z,32.80
2023-02-21T07:41:17.107Z,40.33
2023-02-21T07:43:45.108Z,45.67
2023-02-21T07:46:15.393Z,41.23
2023-02-21T07:48:43.304Z,42.93
2023-02-21T07:51:11.119Z,40.47
2023-02-21T07:53:38.954Z,47.87
2023-02-21T07:56:08.195Z,55.80
2023-02-21T07:58:37.291Z,45.57
2023-02-21T08:01:06.522Z,52.17
2023-02-21T08:03:34.506Z,52.73
2023-02-21T08:06:02.440Z,51.40
2023-02-21T08:08:30.327Z,55.20
2023-02-21T08:10:58.260Z,55.60
2023-02-21T08:13:27.351Z,50.03
2023-02-21T08:15:55.136Z,51.43
2023-02-21T08:18:24.778Z,50.73
2023-02-21T08:20:53.953Z,52.23
2023-02-21T08:23:22.121Z,44.13
2023-02-21T08:25:50.249Z,49.90
2023-02-21T08:28:18.207Z,43.97
2023-02-21T08:30:47.596Z,43.43
2023-02-21T08:33:15.354Z,45.93
2023-02-21T08:35:43.685Z,48.27
2023-02-21T08:38:11.627Z,41.33
2023-02-21T08:40:39.426Z,48.63
2023-02-21T08:43:07.260Z,43.73
2023-02-21T08:45:35.110Z,41.13
2023-02-21T08:48:04.643Z,49.87
2023-02-21T08:50:33.355Z,51.67
2023-02-21T08:53:01.211Z,47.43
2023-02-21T08:55:29.074Z,43.33
2023-02-21T08:57:56.928Z,48.13
2023-02-21T09:00:28.495Z,52.47
2023-02-21T09:02:58.081Z,49.60
2023-02-21T09:05:31.273Z,50.23
2023-02-21T09:08:01.973Z,51.30
2023-02-21T09:10:35.719Z,46.43
2023-02-21T09:13:05.806Z,46.90
2023-02-21T09:15:34.139Z,48.50
2023-02-21T09:18:02.056Z,49.70
2023-02-21T09:20:31.195Z,43.63
2023-02-21T09:22:59.025Z,42.23
2023-02-21T09:25:26.928Z,45.87
2023-02-21T09:27:55.108Z,47.23
2023-02-21T09:30:26.832Z,44.20
2023-02-21T09:32:56.155Z,38.10
2023-02-21T09:35:23.996Z,37.30
2023-02-21T09:37:53.316Z,39.37
2023-02-21T09:40:35.855Z,40.20
2023-02-21T09:43:09.483Z,36.07
2023-02-21T09:45:38.753Z,39.40
2023-02-21T09:48:12.398Z,34.57
2023-02-21T09:50:46.528Z,37.47
2023-02-21T09:53:26.623Z,39.43
2023-02-21T09:56:00.144Z,31.00
2023-02-21T09:58:28.307Z,36.27
2023-02-21T10:01:02.106Z,38.37
2023-02-21T10:03:47.192Z,37.00
2023-02-21T10:06:33.308Z,34.37
2023-02-21T10:11:54.328Z,34.43
2023-02-21T10:14:34.286Z,33.60
2023-02-21T10:17:15.787Z,31.90
2023-02-21T10:19:49.498Z,29.43
2023-02-21T10:22:22.138Z,34.47
2023-02-21T10:24:53.069Z,34.67
2023-02-21T10:27:25.114Z,32.07
2023-02-21T10:30:04.750Z,33.80
2023-02-21T10:32:33.424Z,25.00
2023-02-21T10:35:01.259Z,32.87
2023-02-21T10:37:40.658Z,33.73
2023-02-21T10:40:34.366Z,30.47
2023-02-21T10:43:11.134Z,30.13
2023-02-21T10:45:46.815Z,31.07
2023-02-21T10:48:18.192Z,31.00
2023-02-21T10:50:52.081Z,29.80
2023-02-21T10:53:29.379Z,29.07
2023-02-21T10:56:24.307Z,28.37
2023-02-21T10:58:56.451Z,27.27
2023-02-21T11:01:36.958Z,24.60
2023-02-21T11:04:07.603Z,27.73
2023-02-21T11:06:38.695Z,25.50
2023-02-21T11:09:31.408Z,24.37
2023-02-21T11:12:17.999Z,26.27
2023-02-21T11:15:07.299Z,28.37
2023-02-21T11:17:35.167Z,42.83
2023-02-21T11:20:17.931Z,43.17
2023-02-21T11:22:49.360Z,54.17
2023-02-21T11:25:24.449Z,46.37
2023-02-21T11:28:05.420Z,49.53
2023-02-21T11:30:37.386Z,34.17
2023-02-21T11:33:07.765Z,37.13
2023-02-21T11:35:44.113Z,27.83
2023-02-21T11:38:32.775Z,26.30
2023-02-21T11:41:00.817Z,26.40
2023-02-21T11:43:30.994Z,23.50
2023-02-21T11:46:19.048Z,21.93
2023-02-21T11:49:01.948Z,20.13
2023-02-21T11:51:46.357Z,18.00
2023-02-21T11:54:15.223Z,17.27
2023-02-21T11:56:52.092Z,16.83
2023-02-21T11:59:35.805Z,17.57
2023-02-21T12:02:54.245Z,13.70
2023-02-21T12:05:45.440Z,12.33
2023-02-21T12:08:38.170Z,11.87
2023-02-21T12:11:29.553Z,13.27
2023-02-21T12:14:16.220Z,12.40
2023-02-21T12:17:04.938Z,11.60
2023-02-21T12:19:53.967Z,12.43
2023-02-21T12:22:45.984Z,11.57
2023-02-21T12:25:29.525Z,10.40
2023-02-21T12:28:12.953Z,8.93
2023-02-21T12:31:12.221Z,10.40
2023-02-21T12:33:57.286Z,10.57
2023-02-21T12:36:46.159Z,10.10
2023-02-21T12:39:32.916Z,11.03
2023-02-21T12:42:28.369Z,10.57
2023-02-21T12:45:16.596Z,9.60
2023-02-21T12:47:54.021Z,10.90
2023-02-21T12:50:33.045Z,12.30
2023-02-21T12:53:10.164Z,9.70
2023-02-21T12:55:46.057Z,10.43
2023-02-21T12:58:25.037Z,9.17
2023-02-21T13:00:58.974Z,9.77
2023-02-21T13:03:42.384Z,10.07
2023-02-21T13:06:20.914Z,10.23
2023-02-21T13:09:07.787Z,10.47
2023-02-21T13:11:43.402Z,11.23
2023-02-21T13:14:18.417Z,10.87
2023-02-21T13:16:46.393Z,10.40
2023-02-21T13:19:15.908Z,10.57
2023-02-21T13:22:07.515Z,10.10
2023-02-21T13:25:07.006Z,10.50
2023-02-21T13:28:00.194Z,9.40
2023-02-21T13:30:40.139Z,9.90
2023-02-21T13:33:26.301Z,10.13
2023-02-21T13:38:32.340Z,10.37
2023-02-21T13:41:16.765Z,10.33
2023-02-21T13:43:51.352Z,10.83
2023-02-21T13:47:06.930Z,12.13
2023-02-21T13:49:48.089Z,10.77
2023-02-21T13:53:01.804Z,11.53
2023-02-21T13:55:32.158Z,11.07
2023-02-21T13:58:37.380Z,10.67
2023-02-21T14:01:38.634Z,12.70
2023-02-21T14:04:59.420Z,14.77
2023-02-21T14:07:56.195Z,13.50
2023-02-21T14:10:37.489Z,15.53
2023-02-21T14:13:21.227Z,12.83
2023-02-21T14:15:58.459Z,19.07
2023-02-21T14:18:31.355Z,26.77
2023-02-21T14:21:02.054Z,27.93
2023-02-21T14:23:45.576Z,13.73
2023-02-21T14:26:42.394Z,12.73
2023-02-21T14:29:31.489Z,11.60
2023-02-21T14:32:28.581Z,10.50
2023-02-21T14:34:59.839Z,10.90
2023-02-21T14:37:35.528Z,12.27
2023-02-21T14:43:08.977Z,16.63
2023-02-21T14:45:57.828Z,10.63
2023-02-21T14:48:55.702Z,11.77
2023-02-21T14:52:18.737Z,14.17
2023-02-21T14:55:32.661Z,24.33
2023-02-21T14:58:48.885Z,11.63
2023-02-21T15:01:40.957Z,11.03
2023-02-21T15:04:20.887Z,24.40
2023-02-21T15:07:08.043Z,20.70
2023-02-21T15:09:35.911Z,16.70
2023-02-21T15:12:10.322Z,11.33
2023-02-21T15:14:49.863Z,12.93
2023-02-21T15:17:23.117Z,22.27
2023-02-21T15:20:05.815Z,23.17
2023-02-21T15:22:33.914Z,14.43
2023-02-21T15:25:20.268Z,12.00
2023-02-21T15:27:59.145Z,10.83
2023-02-21T15:30:35.332Z,12.17
2023-02-21T15:33:14.744Z,12.10
2023-02-21T15:35:50.321Z,11.37
2023-02-21T15:41:00.293Z,10.70
2023-02-21T15:43:38.923Z,10.70
2023-02-21T15:46:16.369Z,11.13
2023-02-21T15:48:44.663Z,11.70
2023-02-21T15:51:13.484Z,11.10
2023-02-21T15:53:41.534Z,11.23
2023-02-21T15:56:24.069Z,11.53
2023-02-21T15:59:17.629Z,11.80
2023-02-21T16:02:15.970Z,19.90
2023-02-21T16:04:46.559Z,20.30
2023-02-21T16:07:21.556Z,12.80
2023-02-21T16:09:59.560Z,14.75
2023-02-21T16:12:37.613Z,21.73
2023-02-21T16:15:19.455Z,18.00
2023-02-21T16:17:55.114Z,16.30
2023-02-21T16:23:23.397Z,17.23
2023-02-21T16:25:57.812Z,21.52
2023-02-21T16:28:25.936Z,18.07
2023-02-21T16:30:55.654Z,16.23
2023-02-21T16:33:25.788Z,14.43
2023-02-21T16:35:54.153Z,12.50
2023-02-21T16:38:24.765Z,46.57
2023-02-21T16:40:53.487Z,41.93
2023-02-21T16:43:25.131Z,30.70
2023-02-21T16:45:56.452Z,21.30
2023-02-21T16:48:32.766Z,22.53
2023-02-21T16:51:04.747Z,18.33
2023-02-21T16:53:32.826Z,23.40
2023-02-21T16:56:03.629Z,23.03
2023-02-21T16:58:36.685Z,18.73
2023-02-21T17:01:12.908Z,14.70
2023-02-21T17:03:42.477Z,14.23
2023-02-21T17:06:18.792Z,14.80
2023-02-21T17:08:47.015Z,15.60
2023-02-21T17:11:15.176Z,15.07
2023-02-21T17:13:43.256Z,15.77
2023-02-21T17:16:11.419Z,14.53
2023-02-21T17:18:39.312Z,15.37
2023-02-21T17:21:08.474Z,15.53
2023-02-21T17:23:37.275Z,15.67
2023-02-21T17:26:05.214Z,15.30
2023-02-21T17:28:34.441Z,15.20
2023-02-21T17:31:02.356Z,16.17
2023-02-21T17:33:30.320Z,15.43
2023-02-21T17:35:58.370Z,16.67
2023-02-21T17:38:27.490Z,15.97
2023-02-21T17:40:59.263Z,15.60
2023-02-21T17:43:27.123Z,15.87
2023-02-21T17:45:54.906Z,16.57
2023-02-21T17:48:23.056Z,15.87
2023-02-21T17:50:50.977Z,16.00
2023-02-21T17:53:18.742Z,16.20
2023-02-21T17:55:48.608Z,16.20
2023-02-21T17:58:16.403Z,16.67
2023-02-21T18:00:45.290Z,16.07
2023-02-21T18:03:13.294Z,14.93
2023-02-21T18:05:41.102Z,15.87
2023-02-21T18:08:08.910Z,16.10
2023-02-21T18:10:36.890Z,15.93
2023-02-21T18:13:06.072Z,16.70
2023-02-21T18:15:33.914Z,16.30
2023-02-21T18:18:06.883Z,15.40
2023-02-21T18:20:35.927Z,16.60
2023-02-21T18:23:06.510Z,17.63
2023-02-21T18:25:35.665Z,17.90
2023-02-21T18:28:05.980Z,18.03
2023-02-21T18:30:34.024Z,18.50
2023-02-21T18:33:02.193Z,19.13
2023-02-21T18:35:30.069Z,18.37
2023-02-21T18:37:58.023Z,22.30
2023-02-21T18:40:34.404Z,23.33
2023-02-21T18:43:02.560Z,23.60
2023-02-21T18:45:34.033Z,22.33
2023-02-21T18:48:03.190Z,21.57
2023-02-21T18:50:30.931Z,23.13
2023-02-21T18:52:59.564Z,24.07
2023-02-21T18:55:27.355Z,25.43
2023-02-21T18:57:55.407Z,25.53
2023-02-21T19:00:24.727Z,26.13
2023-02-21T19:02:54.139Z,26.90
2023-02-21T19:05:25.101Z,29.73
2023-02-21T19:07:53.913Z,31.17
2023-02-21T19:10:28.410Z,28.90
2023-02-21T19:12:59.209Z,28.83
2023-02-21T19:15:27.221Z,30.87
2023-02-21T19:17:57.552Z,31.13
2023-02-21T19:20:25.794Z,30.83
2023-02-21T19:22:55.970Z,30.20
2023-02-21T19:25:27.883Z,32.00
2023-02-21T19:28:00.718Z,30.00
2023-02-21T19:30:33.650Z,30.50
2023-02-21T19:33:05.010Z,32.43
2023-02-21T19:35:34.918Z,34.20
2023-02-21T19:38:06.140Z,34.10
2023-02-21T19:40:35.396Z,31.90
2023-02-21T19:43:04.050Z,35.43
2023-02-21T19:45:32.460Z,37.07
2023-02-21T19:48:00.636Z,35.53
2023-02-21T19:50:34.800Z,35.23
2023-02-21T19:53:02.855Z,36.60
2023-02-21T19:55:31.245Z,36.27
2023-02-21T19:57:59.547Z,36.70
2023-02-21T20:00:27.754Z,37.47
2023-02-21T20:02:55.692Z,37.93
2023-02-21T20:05:23.919Z,38.97
2023-02-21T20:07:53.513Z,38.77
2023-02-21T20:10:25.436Z,38.60
2023-02-21T20:12:55.747Z,39.93
2023-02-21T20:15:24.685Z,39.10
2023-02-21T20:17:54.304Z,37.63
2023-02-21T20:20:22.567Z,39.77
2023-02-21T20:22:51.163Z,40.57
2023-02-21T20:25:21.182Z,40.57
2023-02-21T20:27:49.242Z,40.83
2023-02-21T20:30:17.596Z,41.13
2023-02-21T20:32:45.872Z,41.77
2023-02-21T20:35:13.905Z,40.97
2023-02-21T20:37:41.964Z,42.37
2023-02-21T20:40:11.329Z,42.03
2023-02-21T20:42:41.254Z,42.77
2023-02-21T20:45:13.384Z,42.90
2023-02-21T20:47:41.519Z,42.27
2023-02-21T20:50:10.014Z,43.63
2023-02-21T20:52:40.356Z,44.37
2023-02-21T20:55:09.733Z,43.77
2023-02-21T20:57:37.722Z,43.97
2023-02-21T21:00:12.643Z,42.13
2023-02-21T21:02:41.929Z,42.40
2023-02-21T21:05:13.958Z,43.13
2023-02-21T21:07:46.111Z,44.53
2023-02-21T21:10:16.697Z,45.07
2023-02-21T21:12:45.472Z,43.83
2023-02-21T21:15:15.804Z,41.87
2023-02-21T21:17:43.859Z,43.50
2023-02-21T21:20:17.618Z,43.60
2023-02-21T21:22:46.468Z,42.70
2023-02-21T21:25:16.924Z,42.90
2023-02-21T21:27:45.820Z,42.63
2023-02-21T21:30:22.571Z,43.37
2023-02-21T21:32:50.765Z,43.33
2023-02-21T21:35:20.217Z,42.23
2023-02-21T21:37:49.565Z,43.13
2023-02-21T21:40:17.836Z,43.77
2023-02-21T21:42:49.709Z,43.93
2023-02-21T21:45:25.109Z,44.43
2023-02-21T21:50:27.397Z,41.47
2023-02-21T21:52:58.301Z,43.20
2023-02-21T21:55:29.150Z,42.70
2023-02-21T21:57:58.895Z,42.80
2023-02-21T22:00:30.411Z,41.93
2023-02-21T22:03:01.915Z,41.43
2023-02-21T22:05:32.014Z,41.90
2023-02-21T22:08:00.222Z,42.47
2023-02-21T22:10:29.350Z,44.40
2023-02-21T22:13:00.502Z,43.40
2023-02-21T22:15:30.238Z,40.20
2023-02-21T22:18:03.741Z,42.83
2023-02-21T22:20:31.687Z,42.23
2023-02-21T22:23:00.364Z,42.63
2023-02-21T22:25:30.560Z,43.60
2023-02-21T22:28:02.536Z,42.93
2023-02-21T22:30:31.935Z,41.40
2023-02-21T22:32:59.931Z,41.90
2023-02-21T22:35:28.529Z,42.47
2023-02-21T22:38:02.032Z,41.13
2023-02-21T22:40:35.465Z,39.77
2023-02-21T22:43:08.950Z,40.43
2023-02-21T22:45:38.695Z,41.50
2023-02-21T22:48:10.002Z,40.53
2023-02-21T22:50:39.381Z,41.80
2023-02-21T22:53:13.010Z,40.53
2023-02-21T22:55:41.031Z,39.33
2023-02-21T22:58:10.107Z,38.40
2023-02-21T23:00:39.430Z,40.57
2023-02-21T23:03:15.690Z,41.27
2023-02-21T23:05:46.804Z,41.20
2023-02-21T23:08:18.405Z,41.27
2023-02-21T23:10:47.768Z,40.47
2023-02-21T23:13:20.800Z,40.23
2023-02-21T23:15:51.709Z,41.57
2023-02-21T23:18:21.003Z,42.13
2023-02-21T23:20:53.080Z,40.40
2023-02-21T23:23:25.806Z,40.37
2023-02-21T23:25:59.253Z,42.60
2023-02-21T23:28:30.450Z,43.80
2023-02-21T23:30:59.736Z,42.20
2023-02-21T23:33:30.240Z,42.60
2023-02-21T23:35:58.627Z,44.20
2023-02-21T23:38:28.533Z,41.63
2023-02-21T23:40:58.810Z,41.83
2023-02-21T23:43:29.793Z,43.67
2023-02-21T23:46:00.253Z,40.80
2023-02-21T23:48:29.703Z,42.47
2023-02-21T23:50:58.175Z,44.13
2023-02-21T23:53:29.393Z,40.97
2023-02-21T23:56:00.337Z,42.53
2023-02-21T23:58:33.913Z,40.73
